sensor_id;sensor_type;location;lat;lon;timestamp;P1;durP1;ratioP1;P2;durP2;ratioP2
7160;SDS011;3622;53.576;9.978;2023-11-19T00:00:29;11.60;;;6.80;;
7160;SDS011;3622;53.576;9.978;2023-11-19T00:02:55;10.90;;;6.70;;
7160;SDS011;3622;53.576;9.978;2023-11-19T00:05:21;8.50;;;6.53;;
7160;SDS011;3622;53.576;9.978;2023-11-19T00:07:46;8.60;;;6.30;;
7160;SDS011;3622;53.576;9.978;2023-11-19T00:10:13;9.83;;;6.27;;
7160;SDS011;3622;53.576;9.978;2023-11-19T00:12:43;8.37;;;6.20;;
7160;SDS011;3622;53.576;9.978;2023-11-19T00:15:10;8.60;;;6.37;;
7160;SDS011;3622;53.576;9.978;2023-11-19T00:17:37;10.13;;;6.63;;
7160;SDS011;3622;53.576;9.978;2023-11-19T00:20:05;18.73;;;10.90;;
7160;SDS011;3622;53.576;9.978;2023-11-19T00:22:31;7.70;;;6.23;;
7160;SDS011;3622;53.576;9.978;2023-11-19T00:24:57;10.33;;;6.93;;
7160;SDS011;3622;53.576;9.978;2023-11-19T00:27:24;6.13;;;5.30;;
7160;SDS011;3622;53.576;9.978;2023-11-19T00:29:50;10.43;;;7.70;;
7160;SDS011;3622;53.576;9.978;2023-11-19T00:32:16;12.20;;;7.73;;
7160;SDS011;3622;53.576;9.978;2023-11-19T00:34:45;8.23;;;5.50;;
7160;SDS011;3622;53.576;9.978;2023-11-19T00:37:13;5.87;;;5.27;;
7160;SDS011;3622;53.576;9.978;2023-11-19T00:39:40;7.63;;;5.00;;
7160;SDS011;3622;53.576;9.978;2023-11-19T00:42:06;10.00;;;6.10;;
7160;SDS011;3622;53.576;9.978;2023-11-19T00:44:32;4.63;;;4.27;;
7160;SDS011;3622;53.576;9.978;2023-11-19T00:46:58;6.50;;;5.80;;
7160;SDS011;3622;53.576;9.978;2023-11-19T00:49:25;5.87;;;4.80;;
7160;SDS011;3622;53.576;9.978;2023-11-19T00:51:51;4.87;;;4.13;;
7160;SDS011;3622;53.576;9.978;2023-11-19T00:54:16;4.97;;;4.50;;
7160;SDS011;3622;53.576;9.978;2023-11-19T00:56:42;6.30;;;5.17;;
7160;SDS011;3622;53.576;9.978;2023-11-19T00:59:09;5.23;;;4.73;;
7160;SDS011;3622;53.576;9.978;2023-11-19T01:01:35;7.07;;;4.90;;
7160;SDS011;3622;53.576;9.978;2023-11-19T01:04:01;5.17;;;4.70;;
7160;SDS011;3622;53.576;9.978;2023-11-19T01:06:28;6.93;;;4.43;;
7160;SDS011;3622;53.576;9.978;2023-11-19T01:08:54;4.13;;;3.73;;
7160;SDS011;3622;53.576;9.978;2023-11-19T01:11:21;5.03;;;4.33;;
7160;SDS011;3622;53.576;9.978;2023-11-19T01:13:48;4.93;;;4.37;;
7160;SDS011;3622;53.576;9.978;2023-11-19T01:16:14;4.13;;;3.73;;
7160;SDS011;3622;53.576;9.978;2023-11-19T01:18:40;3.90;;;3.60;;
7160;SDS011;3622;53.576;9.978;2023-11-19T01:21:06;3.10;;;2.90;;
7160;SDS011;3622;53.576;9.978;2023-11-19T01:23:32;3.87;;;3.57;;
7160;SDS011;3622;53.576;9.978;2023-11-19T01:25:59;3.70;;;3.27;;
7160;SDS011;3622;53.576;9.978;2023-11-19T01:28:24;3.10;;;2.67;;
7160;SDS011;3622;53.576;9.978;2023-11-19T01:30:51;3.27;;;3.07;;
7160;SDS011;3622;53.576;9.978;2023-11-19T01:33:17;2.37;;;2.27;;
7160;SDS011;3622;53.576;9.978;2023-11-19T01:35:43;3.43;;;3.17;;
7160;SDS011;3622;53.576;9.978;2023-11-19T01:38:09;2.93;;;2.73;;
7160;SDS011;3622;53.576;9.978;2023-11-19T01:40:35;3.00;;;2.80;;
7160;SDS011;3622;53.576;9.978;2023-11-19T01:43:01;3.13;;;2.93;;
7160;SDS011;3622;53.576;9.978;2023-11-19T01:45:28;3.33;;;3.13;;
7160;SDS011;3622;53.576;9.978;2023-11-19T01:47:55;4.10;;;3.40;;
7160;SDS011;3622;53.576;9.978;2023-11-19T01:50:22;3.10;;;2.90;;
7160;SDS011;3622;53.576;9.978;2023-11-19T01:52:49;2.70;;;2.60;;
7160;SDS011;3622;53.576;9.978;2023-11-19T01:55:15;3.47;;;3.10;;
7160;SDS011;3622;53.576;9.978;2023-11-19T01:57:41;3.03;;;2.83;;
7160;SDS011;3622;53.576;9.978;2023-11-19T02:00:07;3.83;;;3.53;;
7160;SDS011;3622;53.576;9.978;2023-11-19T02:02:37;3.10;;;2.90;;
7160;SDS011;3622;53.576;9.978;2023-11-19T02:05:04;2.73;;;2.53;;
7160;SDS011;3622;53.576;9.978;2023-11-19T02:07:30;2.83;;;2.63;;
7160;SDS011;3622;53.576;9.978;2023-11-19T02:09:57;2.70;;;2.60;;
7160;SDS011;3622;53.576;9.978;2023-11-19T02:12:26;2.80;;;2.70;;
7160;SDS011;3622;53.576;9.978;2023-11-19T02:14:58;2.30;;;2.20;;
7160;SDS011;3622;53.576;9.978;2023-11-19T02:17:25;2.47;;;2.37;;
7160;SDS011;3622;53.576;9.978;2023-11-19T02:19:51;2.60;;;2.50;;
7160;SDS011;3622;53.576;9.978;2023-11-19T02:22:17;2.37;;;2.27;;
7160;SDS011;3622;53.576;9.978;2023-11-19T02:24:43;2.67;;;2.53;;
7160;SDS011;3622;53.576;9.978;2023-11-19T02:28:10;3.00;;;2.80;;
7160;SDS011;3622;53.576;9.978;2023-11-19T02:30:05;3.03;;;2.83;;
7160;SDS011;3622;53.576;9.978;2023-11-19T02:32:33;2.80;;;2.70;;
7160;SDS011;3622;53.576;9.978;2023-11-19T02:35:00;2.57;;;2.37;;
7160;SDS011;3622;53.576;9.978;2023-11-19T02:37:26;2.97;;;2.77;;
7160;SDS011;3622;53.576;9.978;2023-11-19T02:39:53;2.90;;;2.80;;
7160;SDS011;3622;53.576;9.978;2023-11-19T02:42:19;2.67;;;2.47;;
7160;SDS011;3622;53.576;9.978;2023-11-19T02:44:45;2.47;;;2.37;;
7160;SDS011;3622;53.576;9.978;2023-11-19T02:47:11;2.50;;;2.30;;
7160;SDS011;3622;53.576;9.978;2023-11-19T02:49:37;2.60;;;2.50;;
7160;SDS011;3622;53.576;9.978;2023-11-19T02:52:03;2.63;;;2.53;;
7160;SDS011;3622;53.576;9.978;2023-11-19T02:54:35;3.07;;;2.87;;
7160;SDS011;3622;53.576;9.978;2023-11-19T02:57:01;2.70;;;2.60;;
7160;SDS011;3622;53.576;9.978;2023-11-19T02:59:29;2.90;;;2.70;;
7160;SDS011;3622;53.576;9.978;2023-11-19T03:02:03;3.13;;;3.00;;
7160;SDS011;3622;53.576;9.978;2023-11-19T03:04:31;2.93;;;2.73;;
7160;SDS011;3622;53.576;9.978;2023-11-19T03:06:57;3.37;;;3.10;;
7160;SDS011;3622;53.576;9.978;2023-11-19T03:09:23;2.97;;;2.77;;
7160;SDS011;3622;53.576;9.978;2023-11-19T03:11:49;2.93;;;2.83;;
7160;SDS011;3622;53.576;9.978;2023-11-19T03:14:15;2.50;;;2.40;;
7160;SDS011;3622;53.576;9.978;2023-11-19T03:16:44;2.57;;;2.47;;
7160;SDS011;3622;53.576;9.978;2023-11-19T03:19:11;2.23;;;2.13;;
7160;SDS011;3622;53.576;9.978;2023-11-19T03:21:37;2.20;;;2.10;;
7160;SDS011;3622;53.576;9.978;2023-11-19T03:24:03;1.87;;;1.77;;
7160;SDS011;3622;53.576;9.978;2023-11-19T03:26:29;4.53;;;1.90;;
7160;SDS011;3622;53.576;9.978;2023-11-19T03:28:55;1.97;;;1.87;;
7160;SDS011;3622;53.576;9.978;2023-11-19T03:31:22;2.23;;;2.03;;
7160;SDS011;3622;53.576;9.978;2023-11-19T03:33:48;2.10;;;1.90;;
7160;SDS011;3622;53.576;9.978;2023-11-19T03:36:14;2.30;;;2.20;;
7160;SDS011;3622;53.576;9.978;2023-11-19T03:38:40;2.10;;;2.00;;
7160;SDS011;3622;53.576;9.978;2023-11-19T03:41:11;2.20;;;2.10;;
7160;SDS011;3622;53.576;9.978;2023-11-19T03:43:37;2.37;;;2.27;;
7160;SDS011;3622;53.576;9.978;2023-11-19T03:46:03;4.50;;;2.20;;
7160;SDS011;3622;53.576;9.978;2023-11-19T03:48:30;2.30;;;2.20;;
7160;SDS011;3622;53.576;9.978;2023-11-19T03:50:56;2.27;;;2.00;;
7160;SDS011;3622;53.576;9.978;2023-11-19T03:53:22;1.73;;;1.63;;
7160;SDS011;3622;53.576;9.978;2023-11-19T03:55:49;2.27;;;2.17;;
7160;SDS011;3622;53.576;9.978;2023-11-19T03:58:15;2.47;;;2.37;;
7160;SDS011;3622;53.576;9.978;2023-11-19T04:00:41;2.60;;;2.33;;
7160;SDS011;3622;53.576;9.978;2023-11-19T04:03:07;2.40;;;2.20;;
7160;SDS011;3622;53.576;9.978;2023-11-19T04:05:33;2.50;;;2.40;;
7160;SDS011;3622;53.576;9.978;2023-11-19T04:07:59;2.40;;;2.30;;
7160;SDS011;3622;53.576;9.978;2023-11-19T04:10:25;2.77;;;2.67;;
7160;SDS011;3622;53.576;9.978;2023-11-19T04:12:52;2.50;;;2.40;;
7160;SDS011;3622;53.576;9.978;2023-11-19T04:15:18;2.97;;;2.77;;
7160;SDS011;3622;53.576;9.978;2023-11-19T04:17:44;2.60;;;2.50;;
7160;SDS011;3622;53.576;9.978;2023-11-19T04:20:10;2.93;;;2.43;;
7160;SDS011;3622;53.576;9.978;2023-11-19T04:22:38;3.10;;;2.90;;
7160;SDS011;3622;53.576;9.978;2023-11-19T04:25:04;3.27;;;2.93;;
7160;SDS011;3622;53.576;9.978;2023-11-19T04:27:30;2.67;;;2.50;;
7160;SDS011;3622;53.576;9.978;2023-11-19T04:29:56;4.90;;;3.00;;
7160;SDS011;3622;53.576;9.978;2023-11-19T04:32:22;3.43;;;3.23;;
7160;SDS011;3622;53.576;9.978;2023-11-19T04:34:50;4.13;;;3.50;;
7160;SDS011;3622;53.576;9.978;2023-11-19T04:37:16;3.87;;;3.57;;
7160;SDS011;3622;53.576;9.978;2023-11-19T04:39:43;2.97;;;2.77;;
7160;SDS011;3622;53.576;9.978;2023-11-19T04:42:11;3.30;;;3.00;;
7160;SDS011;3622;53.576;9.978;2023-11-19T04:44:37;3.70;;;3.43;;
7160;SDS011;3622;53.576;9.978;2023-11-19T04:47:03;3.90;;;3.60;;
7160;SDS011;3622;53.576;9.978;2023-11-19T04:49:29;3.40;;;3.20;;
7160;SDS011;3622;53.576;9.978;2023-11-19T04:51:55;6.63;;;4.20;;
7160;SDS011;3622;53.576;9.978;2023-11-19T04:54:21;6.60;;;4.80;;
7160;SDS011;3622;53.576;9.978;2023-11-19T04:56:48;6.23;;;4.10;;
7160;SDS011;3622;53.576;9.978;2023-11-19T04:59:14;5.03;;;4.50;;
7160;SDS011;3622;53.576;9.978;2023-11-19T05:01:40;4.83;;;4.33;;
7160;SDS011;3622;53.576;9.978;2023-11-19T05:04:06;6.17;;;4.53;;
7160;SDS011;3622;53.576;9.978;2023-11-19T05:06:32;6.20;;;4.90;;
7160;SDS011;3622;53.576;9.978;2023-11-19T05:09:00;7.53;;;5.53;;
7160;SDS011;3622;53.576;9.978;2023-11-19T05:11:26;9.50;;;5.90;;
7160;SDS011;3622;53.576;9.978;2023-11-19T05:13:53;10.17;;;6.20;;
7160;SDS011;3622;53.576;9.978;2023-11-19T05:16:19;7.90;;;6.30;;
7160;SDS011;3622;53.576;9.978;2023-11-19T05:18:46;9.10;;;6.50;;
7160;SDS011;3622;53.576;9.978;2023-11-19T05:21:12;15.63;;;6.90;;
7160;SDS011;3622;53.576;9.978;2023-11-19T05:23:38;7.70;;;6.57;;
7160;SDS011;3622;53.576;9.978;2023-11-19T05:26:04;9.57;;;7.20;;
7160;SDS011;3622;53.576;9.978;2023-11-19T05:28:30;13.97;;;7.73;;
7160;SDS011;3622;53.576;9.978;2023-11-19T05:30:56;17.10;;;6.70;;
7160;SDS011;3622;53.576;9.978;2023-11-19T05:33:22;11.37;;;7.33;;
7160;SDS011;3622;53.576;9.978;2023-11-19T05:35:48;14.47;;;8.07;;
7160;SDS011;3622;53.576;9.978;2023-11-19T05:38:14;10.73;;;7.70;;
7160;SDS011;3622;53.576;9.978;2023-11-19T05:40:40;16.93;;;9.50;;
7160;SDS011;3622;53.576;9.978;2023-11-19T05:43:07;15.80;;;9.60;;
7160;SDS011;3622;53.576;9.978;2023-11-19T05:45:33;23.97;;;10.13;;
7160;SDS011;3622;53.576;9.978;2023-11-19T05:47:59;23.50;;;10.80;;
7160;SDS011;3622;53.576;9.978;2023-11-19T05:50:24;28.67;;;10.87;;
7160;SDS011;3622;53.576;9.978;2023-11-19T05:52:50;21.30;;;10.20;;
7160;SDS011;3622;53.576;9.978;2023-11-19T05:55:18;24.83;;;11.30;;
7160;SDS011;3622;53.576;9.978;2023-11-19T05:57:44;26.70;;;11.50;;
7160;SDS011;3622;53.576;9.978;2023-11-19T06:00:10;23.40;;;10.47;;
7160;SDS011;3622;53.576;9.978;2023-11-19T06:02:38;26.67;;;11.40;;
7160;SDS011;3622;53.576;9.978;2023-11-19T06:05:04;21.80;;;10.10;;
7160;SDS011;3622;53.576;9.978;2023-11-19T06:07:31;19.10;;;10.30;;
7160;SDS011;3622;53.576;9.978;2023-11-19T06:09:57;23.50;;;11.47;;
7160;SDS011;3622;53.576;9.978;2023-11-19T06:12:23;16.80;;;10.60;;
7160;SDS011;3622;53.576;9.978;2023-11-19T06:14:49;27.60;;;12.03;;
7160;SDS011;3622;53.576;9.978;2023-11-19T06:17:15;22.50;;;11.03;;
7160;SDS011;3622;53.576;9.978;2023-11-19T06:19:41;30.20;;;11.60;;
7160;SDS011;3622;53.576;9.978;2023-11-19T06:22:07;24.50;;;10.63;;
7160;SDS011;3622;53.576;9.978;2023-11-19T06:24:33;26.50;;;11.17;;
7160;SDS011;3622;53.576;9.978;2023-11-19T06:26:59;23.23;;;10.63;;
7160;SDS011;3622;53.576;9.978;2023-11-19T06:29:25;26.87;;;10.53;;
7160;SDS011;3622;53.576;9.978;2023-11-19T06:31:51;21.27;;;11.90;;
7160;SDS011;3622;53.576;9.978;2023-11-19T06:34:17;23.20;;;10.80;;
7160;SDS011;3622;53.576;9.978;2023-11-19T06:36:43;34.60;;;10.30;;
7160;SDS011;3622;53.576;9.978;2023-11-19T06:39:09;30.13;;;10.53;;
7160;SDS011;3622;53.576;9.978;2023-11-19T06:41:40;36.87;;;14.17;;
7160;SDS011;3622;53.576;9.978;2023-11-19T06:44:09;23.67;;;10.17;;
7160;SDS011;3622;53.576;9.978;2023-11-19T06:46:35;40.03;;;16.40;;
7160;SDS011;3622;53.576;9.978;2023-11-19T06:49:01;31.63;;;12.37;;
7160;SDS011;3622;53.576;9.978;2023-11-19T06:51:27;20.23;;;8.73;;
7160;SDS011;3622;53.576;9.978;2023-11-19T06:53:54;28.90;;;10.60;;
7160;SDS011;3622;53.576;9.978;2023-11-19T06:56:21;28.53;;;9.73;;
7160;SDS011;3622;53.576;9.978;2023-11-19T06:58:47;21.17;;;8.97;;
7160;SDS011;3622;53.576;9.978;2023-11-19T07:01:14;20.33;;;9.00;;
7160;SDS011;3622;53.576;9.978;2023-11-19T07:03:40;26.30;;;8.00;;
7160;SDS011;3622;53.576;9.978;2023-11-19T07:06:06;25.13;;;9.13;;
7160;SDS011;3622;53.576;9.978;2023-11-19T07:08:32;31.87;;;9.90;;
7160;SDS011;3622;53.576;9.978;2023-11-19T07:10:58;28.73;;;10.13;;
7160;SDS011;3622;53.576;9.978;2023-11-19T07:13:24;18.40;;;7.50;;
7160;SDS011;3622;53.576;9.978;2023-11-19T07:15:53;21.87;;;7.20;;
7160;SDS011;3622;53.576;9.978;2023-11-19T07:18:19;17.67;;;7.80;;
7160;SDS011;3622;53.576;9.978;2023-11-19T07:20:46;15.90;;;6.60;;
7160;SDS011;3622;53.576;9.978;2023-11-19T07:23:12;17.77;;;7.10;;
7160;SDS011;3622;53.576;9.978;2023-11-19T07:25:41;27.13;;;5.83;;
7160;SDS011;3622;53.576;9.978;2023-11-19T07:28:08;16.80;;;5.50;;
7160;SDS011;3622;53.576;9.978;2023-11-19T07:30:34;22.40;;;6.90;;
7160;SDS011;3622;53.576;9.978;2023-11-19T07:33:00;17.67;;;5.20;;
7160;SDS011;3622;53.576;9.978;2023-11-19T07:35:28;19.37;;;7.43;;
7160;SDS011;3622;53.576;9.978;2023-11-19T07:37:56;13.90;;;4.57;;
7160;SDS011;3622;53.576;9.978;2023-11-19T07:40:22;17.50;;;5.10;;
7160;SDS011;3622;53.576;9.978;2023-11-19T07:42:48;20.73;;;4.57;;
7160;SDS011;3622;53.576;9.978;2023-11-19T07:45:14;16.10;;;4.47;;
7160;SDS011;3622;53.576;9.978;2023-11-19T07:47:40;18.90;;;4.90;;
7160;SDS011;3622;53.576;9.978;2023-11-19T07:50:09;21.43;;;5.40;;
7160;SDS011;3622;53.576;9.978;2023-11-19T07:52:35;20.13;;;4.20;;
7160;SDS011;3622;53.576;9.978;2023-11-19T07:55:01;15.03;;;4.13;;
7160;SDS011;3622;53.576;9.978;2023-11-19T07:57:27;11.83;;;3.93;;
7160;SDS011;3622;53.576;9.978;2023-11-19T07:59:56;10.57;;;4.23;;
7160;SDS011;3622;53.576;9.978;2023-11-19T08:02:21;17.03;;;3.90;;
7160;SDS011;3622;53.576;9.978;2023-11-19T08:04:48;14.70;;;3.83;;
7160;SDS011;3622;53.576;9.978;2023-11-19T08:07:16;14.93;;;4.10;;
7160;SDS011;3622;53.576;9.978;2023-11-19T08:09:42;18.63;;;4.67;;
7160;SDS011;3622;53.576;9.978;2023-11-19T08:12:08;27.07;;;6.07;;
7160;SDS011;3622;53.576;9.978;2023-11-19T08:14:35;19.73;;;5.50;;
7160;SDS011;3622;53.576;9.978;2023-11-19T08:17:02;16.50;;;4.93;;
7160;SDS011;3622;53.576;9.978;2023-11-19T08:19:28;19.40;;;4.80;;
7160;SDS011;3622;53.576;9.978;2023-11-19T08:21:53;21.00;;;4.87;;
7160;SDS011;3622;53.576;9.978;2023-11-19T08:24:19;19.57;;;5.30;;
7160;SDS011;3622;53.576;9.978;2023-11-19T08:26:45;17.40;;;5.50;;
7160;SDS011;3622;53.576;9.978;2023-11-19T08:29:11;36.97;;;9.13;;
7160;SDS011;3622;53.576;9.978;2023-11-19T08:31:38;26.07;;;6.03;;
7160;SDS011;3622;53.576;9.978;2023-11-19T08:34:04;17.80;;;3.97;;
7160;SDS011;3622;53.576;9.978;2023-11-19T08:36:33;24.67;;;4.73;;
7160;SDS011;3622;53.576;9.978;2023-11-19T08:38:59;18.70;;;5.40;;
7160;SDS011;3622;53.576;9.978;2023-11-19T08:41:25;17.17;;;4.43;;
7160;SDS011;3622;53.576;9.978;2023-11-19T08:43:52;22.33;;;5.30;;
7160;SDS011;3622;53.576;9.978;2023-11-19T08:46:18;25.93;;;8.20;;
7160;SDS011;3622;53.576;9.978;2023-11-19T08:48:44;69.43;;;7.90;;
7160;SDS011;3622;53.576;9.978;2023-11-19T08:51:11;21.63;;;5.43;;
7160;SDS011;3622;53.576;9.978;2023-11-19T08:53:36;26.90;;;4.83;;
7160;SDS011;3622;53.576;9.978;2023-11-19T08:56:02;29.50;;;6.53;;
7160;SDS011;3622;53.576;9.978;2023-11-19T08:58:29;17.00;;;4.30;;
7160;SDS011;3622;53.576;9.978;2023-11-19T09:00:55;13.03;;;4.30;;
7160;SDS011;3622;53.576;9.978;2023-11-19T09:03:21;21.20;;;4.90;;
7160;SDS011;3622;53.576;9.978;2023-11-19T09:05:47;26.10;;;7.17;;
7160;SDS011;3622;53.576;9.978;2023-11-19T09:08:13;20.43;;;4.63;;
7160;SDS011;3622;53.576;9.978;2023-11-19T09:10:39;56.30;;;9.33;;
7160;SDS011;3622;53.576;9.978;2023-11-19T09:13:05;25.90;;;6.60;;
7160;SDS011;3622;53.576;9.978;2023-11-19T09:15:31;21.60;;;5.00;;
7160;SDS011;3622;53.576;9.978;2023-11-19T09:17:57;22.53;;;5.10;;
7160;SDS011;3622;53.576;9.978;2023-11-19T09:20:23;23.70;;;4.13;;
7160;SDS011;3622;53.576;9.978;2023-11-19T09:22:49;18.80;;;4.30;;
7160;SDS011;3622;53.576;9.978;2023-11-19T09:25:16;23.73;;;4.70;;
7160;SDS011;3622;53.576;9.978;2023-11-19T09:27:42;19.73;;;4.57;;
7160;SDS011;3622;53.576;9.978;2023-11-19T09:30:09;32.73;;;5.40;;
7160;SDS011;3622;53.576;9.978;2023-11-19T09:32:35;26.47;;;5.40;;
7160;SDS011;3622;53.576;9.978;2023-11-19T09:35:02;25.70;;;4.90;;
7160;SDS011;3622;53.576;9.978;2023-11-19T09:37:28;26.97;;;4.83;;
7160;SDS011;3622;53.576;9.978;2023-11-19T09:39:54;17.40;;;4.40;;
7160;SDS011;3622;53.576;9.978;2023-11-19T09:42:21;22.50;;;3.97;;
7160;SDS011;3622;53.576;9.978;2023-11-19T09:44:47;27.23;;;7.30;;
7160;SDS011;3622;53.576;9.978;2023-11-19T09:47:14;22.43;;;4.77;;
7160;SDS011;3622;53.576;9.978;2023-11-19T09:49:40;30.77;;;4.63;;
7160;SDS011;3622;53.576;9.978;2023-11-19T09:52:07;29.60;;;4.27;;
7160;SDS011;3622;53.576;9.978;2023-11-19T09:54:33;28.13;;;4.33;;
7160;SDS011;3622;53.576;9.978;2023-11-19T09:56:59;18.93;;;4.90;;
7160;SDS011;3622;53.576;9.978;2023-11-19T09:59:29;25.80;;;4.23;;
7160;SDS011;3622;53.576;9.978;2023-11-19T10:01:56;23.67;;;6.30;;
7160;SDS011;3622;53.576;9.978;2023-11-19T10:04:22;16.57;;;4.00;;
7160;SDS011;3622;53.576;9.978;2023-11-19T10:06:49;20.50;;;4.20;;
7160;SDS011;3622;53.576;9.978;2023-11-19T10:09:15;19.20;;;4.23;;
7160;SDS011;3622;53.576;9.978;2023-11-19T10:11:41;24.27;;;4.40;;
7160;SDS011;3622;53.576;9.978;2023-11-19T10:14:07;15.33;;;3.90;;
7160;SDS011;3622;53.576;9.978;2023-11-19T10:16:34;18.03;;;4.27;;
7160;SDS011;3622;53.576;9.978;2023-11-19T10:19:00;17.77;;;4.60;;
7160;SDS011;3622;53.576;9.978;2023-11-19T10:21:26;23.50;;;3.70;;
7160;SDS011;3622;53.576;9.978;2023-11-19T10:23:56;27.17;;;3.80;;
7160;SDS011;3622;53.576;9.978;2023-11-19T10:26:24;23.27;;;3.80;;
7160;SDS011;3622;53.576;9.978;2023-11-19T10:28:50;20.57;;;4.97;;
7160;SDS011;3622;53.576;9.978;2023-11-19T10:31:17;30.00;;;6.57;;
7160;SDS011;3622;53.576;9.978;2023-11-19T10:33:43;19.30;;;4.10;;
7160;SDS011;3622;53.576;9.978;2023-11-19T10:36:10;14.43;;;3.77;;
7160;SDS011;3622;53.576;9.978;2023-11-19T10:38:37;22.30;;;4.57;;
7160;SDS011;3622;53.576;9.978;2023-11-19T10:41:03;21.10;;;4.27;;
7160;SDS011;3622;53.576;9.978;2023-11-19T10:43:30;27.03;;;5.73;;
7160;SDS011;3622;53.576;9.978;2023-11-19T10:46:09;15.83;;;4.67;;
7160;SDS011;3622;53.576;9.978;2023-11-19T10:48:35;25.93;;;4.10;;
7160;SDS011;3622;53.576;9.978;2023-11-19T10:51:01;24.30;;;4.50;;
7160;SDS011;3622;53.576;9.978;2023-11-19T10:53:32;23.10;;;8.87;;
7160;SDS011;3622;53.576;9.978;2023-11-19T10:55:59;26.67;;;4.20;;
7160;SDS011;3622;53.576;9.978;2023-11-19T10:58:26;30.10;;;4.47;;
7160;SDS011;3622;53.576;9.978;2023-11-19T11:00:57;27.80;;;4.90;;
7160;SDS011;3622;53.576;9.978;2023-11-19T11:03:29;21.70;;;4.77;;
7160;SDS011;3622;53.576;9.978;2023-11-19T11:05:55;25.57;;;4.43;;
7160;SDS011;3622;53.576;9.978;2023-11-19T11:08:23;29.30;;;4.27;;
7160;SDS011;3622;53.576;9.978;2023-11-19T11:10:52;23.03;;;3.73;;
7160;SDS011;3622;53.576;9.978;2023-11-19T11:13:18;21.83;;;5.83;;
7160;SDS011;3622;53.576;9.978;2023-11-19T11:15:47;21.53;;;4.30;;
7160;SDS011;3622;53.576;9.978;2023-11-19T11:18:13;27.60;;;3.60;;
7160;SDS011;3622;53.576;9.978;2023-11-19T11:20:40;25.33;;;6.27;;
7160;SDS011;3622;53.576;9.978;2023-11-19T11:25:45;19.60;;;3.83;;
7160;SDS011;3622;53.576;9.978;2023-11-19T11:38:23;19.43;;;4.00;;
7160;SDS011;3622;53.576;9.978;2023-11-19T11:48:56;20.10;;;4.33;;
7160;SDS011;3622;53.576;9.978;2023-11-19T11:54:08;24.73;;;6.17;;
7160;SDS011;3622;53.576;9.978;2023-11-19T11:56:37;17.30;;;4.10;;
7160;SDS011;3622;53.576;9.978;2023-11-19T11:59:03;20.53;;;3.97;;
7160;SDS011;3622;53.576;9.978;2023-11-19T12:01:29;20.10;;;3.90;;
7160;SDS011;3622;53.576;9.978;2023-11-19T12:03:55;23.70;;;5.90;;
7160;SDS011;3622;53.576;9.978;2023-11-19T12:06:22;19.27;;;4.30;;
7160;SDS011;3622;53.576;9.978;2023-11-19T12:08:48;23.50;;;4.50;;
7160;SDS011;3622;53.576;9.978;2023-11-19T12:11:14;27.37;;;6.53;;
7160;SDS011;3622;53.576;9.978;2023-11-19T12:13:45;26.57;;;6.43;;
7160;SDS011;3622;53.576;9.978;2023-11-19T12:16:12;32.07;;;6.53;;
7160;SDS011;3622;53.576;9.978;2023-11-19T12:18:39;23.73;;;4.50;;
7160;SDS011;3622;53.576;9.978;2023-11-19T12:21:05;19.13;;;3.93;;
7160;SDS011;3622;53.576;9.978;2023-11-19T12:23:34;14.03;;;3.60;;
7160;SDS011;3622;53.576;9.978;2023-11-19T12:26:00;25.07;;;3.87;;
7160;SDS011;3622;53.576;9.978;2023-11-19T12:28:26;21.50;;;4.30;;
7160;SDS011;3622;53.576;9.978;2023-11-19T12:30:52;16.23;;;4.30;;
7160;SDS011;3622;53.576;9.978;2023-11-19T12:33:18;16.30;;;3.50;;
7160;SDS011;3622;53.576;9.978;2023-11-19T12:35:45;32.60;;;4.73;;
7160;SDS011;3622;53.576;9.978;2023-11-19T12:38:18;22.67;;;4.00;;
7160;SDS011;3622;53.576;9.978;2023-11-19T12:40:45;21.97;;;4.10;;
7160;SDS011;3622;53.576;9.978;2023-11-19T12:43:20;20.80;;;4.60;;
7160;SDS011;3622;53.576;9.978;2023-11-19T12:45:50;23.60;;;4.10;;
7160;SDS011;3622;53.576;9.978;2023-11-19T12:48:16;20.17;;;3.13;;
7160;SDS011;3622;53.576;9.978;2023-11-19T12:50:55;23.43;;;5.60;;
7160;SDS011;3622;53.576;9.978;2023-11-19T12:53:22;28.57;;;4.40;;
7160;SDS011;3622;53.576;9.978;2023-11-19T12:55:48;11.17;;;3.00;;
7160;SDS011;3622;53.576;9.978;2023-11-19T12:58:33;21.27;;;3.67;;
7160;SDS011;3622;53.576;9.978;2023-11-19T13:01:04;21.80;;;4.97;;
7160;SDS011;3622;53.576;9.978;2023-11-19T13:03:31;14.37;;;3.77;;
7160;SDS011;3622;53.576;9.978;2023-11-19T13:06:01;20.00;;;3.20;;
7160;SDS011;3622;53.576;9.978;2023-11-19T13:08:27;17.43;;;3.60;;
7160;SDS011;3622;53.576;9.978;2023-11-19T13:10:53;22.87;;;6.20;;
7160;SDS011;3622;53.576;9.978;2023-11-19T13:13:20;25.50;;;3.50;;
7160;SDS011;3622;53.576;9.978;2023-11-19T13:15:46;27.47;;;4.07;;
7160;SDS011;3622;53.576;9.978;2023-11-19T13:18:12;19.73;;;4.93;;
7160;SDS011;3622;53.576;9.978;2023-11-19T13:20:41;17.03;;;4.93;;
7160;SDS011;3622;53.576;9.978;2023-11-19T13:23:07;20.77;;;4.83;;
7160;SDS011;3622;53.576;9.978;2023-11-19T13:25:33;16.80;;;3.60;;
7160;SDS011;3622;53.576;9.978;2023-11-19T13:27:59;21.73;;;4.30;;
7160;SDS011;3622;53.576;9.978;2023-11-19T13:30:25;20.87;;;4.00;;
7160;SDS011;3622;53.576;9.978;2023-11-19T13:32:52;18.40;;;4.70;;
7160;SDS011;3622;53.576;9.978;2023-11-19T13:35:20;23.13;;;4.63;;
7160;SDS011;3622;53.576;9.978;2023-11-19T13:37:47;19.13;;;3.83;;
7160;SDS011;3622;53.576;9.978;2023-11-19T13:40:13;21.70;;;3.80;;
7160;SDS011;3622;53.576;9.978;2023-11-19T13:42:40;25.63;;;4.70;;
7160;SDS011;3622;53.576;9.978;2023-11-19T13:45:07;23.33;;;4.33;;
7160;SDS011;3622;53.576;9.978;2023-11-19T13:47:36;14.33;;;3.43;;
7160;SDS011;3622;53.576;9.978;2023-11-19T13:50:06;27.57;;;4.03;;
7160;SDS011;3622;53.576;9.978;2023-11-19T13:52:32;21.93;;;3.77;;
7160;SDS011;3622;53.576;9.978;2023-11-19T13:54:58;17.93;;;3.47;;
7160;SDS011;3622;53.576;9.978;2023-11-19T13:57:24;15.27;;;3.60;;
7160;SDS011;3622;53.576;9.978;2023-11-19T13:59:49;30.53;;;4.70;;
7160;SDS011;3622;53.576;9.978;2023-11-19T14:02:16;28.73;;;4.63;;
7160;SDS011;3622;53.576;9.978;2023-11-19T14:04:42;22.27;;;4.40;;
7160;SDS011;3622;53.576;9.978;2023-11-19T14:07:07;23.03;;;5.43;;
7160;SDS011;3622;53.576;9.978;2023-11-19T14:09:33;19.70;;;3.87;;
7160;SDS011;3622;53.576;9.978;2023-11-19T14:11:59;20.23;;;6.63;;
7160;SDS011;3622;53.576;9.978;2023-11-19T14:14:25;19.90;;;3.83;;
7160;SDS011;3622;53.576;9.978;2023-11-19T14:16:51;17.87;;;3.90;;
7160;SDS011;3622;53.576;9.978;2023-11-19T14:19:17;18.00;;;4.40;;
7160;SDS011;3622;53.576;9.978;2023-11-19T14:21:43;19.60;;;3.83;;
7160;SDS011;3622;53.576;9.978;2023-11-19T14:24:10;19.03;;;4.60;;
7160;SDS011;3622;53.576;9.978;2023-11-19T14:26:36;23.53;;;4.47;;
7160;SDS011;3622;53.576;9.978;2023-11-19T14:29:02;16.70;;;4.20;;
7160;SDS011;3622;53.576;9.978;2023-11-19T14:31:28;18.27;;;3.63;;
7160;SDS011;3622;53.576;9.978;2023-11-19T14:33:54;24.07;;;4.10;;
7160;SDS011;3622;53.576;9.978;2023-11-19T14:36:20;24.47;;;4.70;;
7160;SDS011;3622;53.576;9.978;2023-11-19T14:38:46;26.67;;;5.27;;
7160;SDS011;3622;53.576;9.978;2023-11-19T14:41:12;18.33;;;2.97;;
7160;SDS011;3622;53.576;9.978;2023-11-19T14:43:39;16.13;;;3.67;;
7160;SDS011;3622;53.576;9.978;2023-11-19T14:46:05;15.57;;;3.17;;
7160;SDS011;3622;53.576;9.978;2023-11-19T14:48:31;13.43;;;3.90;;
7160;SDS011;3622;53.576;9.978;2023-11-19T14:50:57;17.83;;;4.77;;
7160;SDS011;3622;53.576;9.978;2023-11-19T14:53:23;20.00;;;4.67;;
7160;SDS011;3622;53.576;9.978;2023-11-19T14:55:49;13.17;;;3.33;;
7160;SDS011;3622;53.576;9.978;2023-11-19T14:58:15;8.90;;;3.03;;
7160;SDS011;3622;53.576;9.978;2023-11-19T15:00:41;11.00;;;2.23;;
7160;SDS011;3622;53.576;9.978;2023-11-19T15:03:07;8.63;;;2.57;;
7160;SDS011;3622;53.576;9.978;2023-11-19T15:05:34;6.30;;;1.70;;
7160;SDS011;3622;53.576;9.978;2023-11-19T15:08:00;7.77;;;1.87;;
7160;SDS011;3622;53.576;9.978;2023-11-19T15:10:25;4.53;;;1.90;;
7160;SDS011;3622;53.576;9.978;2023-11-19T15:12:51;1.87;;;1.03;;
7160;SDS011;3622;53.576;9.978;2023-11-19T15:15:18;3.90;;;2.20;;
7160;SDS011;3622;53.576;9.978;2023-11-19T15:17:43;3.60;;;0.83;;
7160;SDS011;3622;53.576;9.978;2023-11-19T15:20:10;1.07;;;0.73;;
7160;SDS011;3622;53.576;9.978;2023-11-19T15:22:38;5.17;;;1.10;;
7160;SDS011;3622;53.576;9.978;2023-11-19T15:25:04;9.13;;;4.43;;